Aviation Digital Data Service (ADDS)

Output produced by METARs form (0231 UTC 21 November 2017)
found at http://www.aviationweather.gov/adds/metars/
 
METAR text: KSAR 210215Z AUTO 18014G20KT 10SM CLR 07/M01 A2994 RMK AO2 T00711007
Conditions at: KSAR (SPARTA , IL, US) observed 0215 UTC 21 November 2017
Temperature: 7.1°C (45°F)
Dewpoint: -0.7°C (31°F) [RH = 58%]
Pressure (altimeter): 29.94 inches Hg (1014.0 mb)
Winds: from the S (180 degrees) at 16 MPH (14 knots; 7.3 m/s)
gusting to 23 MPH (20 knots; 10.4 m/s)
Visibility: 10 or more miles (16+ km)
Ceiling: at least 12,000 feet AGL
Clouds: sky clear below 12,000 feet AGL
Weather: automated observation with no human augmentation;
there may or may not be significant weather present at this time